Bookmark and Share
Track history (hours):
 

Sigas Ingrid

Last reported at 2014-Apr-12 19:13 UTC. Time now 2014-Apr-17 15:33 UTC.
Position N 36°43' E 015°20'.

Length 100 m; draft 5.4 m.

Type: Ship (hazmat cat B). MMSI: 477658800.

NotesDate/timePositionNaut miles runAvg speedWind from/ knotsBaromVisibWave heightAir tempDewpointWater temp
2014-Apr-12 19:13N 36°43' E 015°20'1013.0
2014-Apr-12 18:29N 36°36' E 015°12'3712.5
2014-Apr-12 15:33N 36°04' E 014°49'12212.2
2014-Apr-12 05:33N 34°59' E 012°42'1312.4
2014-Apr-12 04:30N 34°53' E 012°28'1212.6
2014-Apr-12 03:33N 34°48' E 012°15'1312.6
2014-Apr-12 02:33N 34°43' E 012°01'1312.6
2014-Apr-12 01:33N 34°37' E 011°47'1212.3
2014-Apr-12 00:33N 34°32' E 011°33'1212.0
2014-Apr-11 23:33N 34°27' E 011°20'1212.0
2014-Apr-11 22:34N 34°21' E 011°07'1211.8
2014-Apr-11 21:33N 34°16' E 010°54'1312.0
2014-Apr-11 20:29N 34°11' E 010°40'1212.1
2014-Apr-11 19:32N 34°05' E 010°28'1212.0
2014-Apr-11 18:33N 33°60' E 010°16'9 8.9
2014-Apr-11 17:32N 33°55' E 010°06'  
2014-Apr-04 00:30N 36°28' E 012°35'1111.9
2014-Apr-03 23:34N 36°37' E 012°27'1212.0
2014-Apr-03 22:33N 36°46' E 012°17'1211.7
2014-Apr-03 21:33N 36°55' E 012°07'1211.7
2014-Apr-03 20:30N 37°02' E 011°54'1111.1
2014-Apr-03 19:30N 37°08' E 011°42'1110.7
2014-Apr-03 18:29N 37°14' E 011°31'910.0
2014-Apr-03 17:33N 37°19' E 011°21'1010.1
2014-Apr-03 16:33N 37°23' E 011°10'1010.1
2014-Apr-03 15:33N 37°26' E 010°58'1010.2
2014-Apr-03 14:33N 37°28' E 010°45'1110.7
2014-Apr-03 13:33N 37°31' E 010°32'1411.0
2014-Apr-03 12:19N 37°34' E 010°15'911.9
2014-Apr-03 11:33N 37°34' E 010°04'6311.5
2014-Apr-03 06:05N 37°41' E 008°45'812.6
2014-Apr-03 05:28N 37°40' E 008°35'1312.1
2014-Apr-03 04:24N 37°38' E 008°19'  

Dump ship's entire track history

sailing weather and tide predictions

Sigas Ingrid — VRCQ6 — position and weather